Sigel, Pennsylvania
Current Conditions -  °F | °C
As of 12:53 PM on Monday 24 Nov 2014 (Local Time) from KDUJ Reporting Station
Overcast Overcast  
Wind Chill: 66°   Ceiling: 9000
Heat Index: 66°   Visibility: 10mi
Dew Point: 44°   Wind: 15mph
Humidity: 45%   Direction: 200°SSW
Pressure: 29.4"   Gusts: 29mph
Location:  41.28°N, 79.11°W
Report Text: KDUJ 241753Z AUTO 20013G25KT 10SM FEW060 SCT070 OVC090 19/07 A2940 RMK AO2 PK WND 22034/1739 SLP952 T01890067 10194 20139 56014
Loading
Personal Weather Stations






























Interactive Weather Map New forecast layout! Learn more

10-Day Weather Forecast

Advertisements
Track Severe Weather on mobile